Time;durP1;ratioP1;P1;durP2;ratioP2;P2;SDS_P1;SDS_P2;PMS_P1;PMS_P2;Temp;Humidity;BMP_temperature;BMP_pressure;BME280_temperature;BME280_humidity;BME280_pressure;Samples;Min_cycle;Max_cycle;Signal;HPM_P1;HPM_P2
2022/06/23 00:00:27;;;;;;;;;;;20.00;99.90;;;;;;4920985;29;20060;-79
2022/06/23 00:02:56;;;;;;;12.05;5.25;;;20.00;99.90;;;;;;4938560;29;19930;-78
2022/06/23 00:05:25;;;;;;;10.40;3.88;;;20.00;99.90;;;;;;4924321;29;20080;-79
2022/06/23 00:07:55;;;;;;;7.68;2.97;;;19.90;99.90;;;;;;4923860;29;20106;-78
2022/06/23 00:10:38;;;;;;;11.45;3.38;;;19.90;99.90;;;;;;4920146;29;20059;-78
2022/06/23 00:13:37;;;;;;;10.57;3.10;;;19.80;99.90;;;;;;4923703;29;20330;-78
2022/06/23 00:16:05;;;;;;;12.77;3.42;;;19.80;99.90;;;;;;4902165;29;20055;-78
2022/06/23 00:18:37;;;;;;;9.15;2.65;;;19.80;99.90;;;;;;4923214;29;20059;-78
2022/06/23 00:21:30;;;;;;;9.05;3.30;;;19.70;99.90;;;;;;4924108;29;20052;-79
2022/06/23 00:24:02;;;;;;;10.00;3.08;;;19.80;99.90;;;;;;4921550;29;20114;-78
2022/06/23 00:26:32;;;;;;;12.27;2.55;;;19.70;99.90;;;;;;4923812;29;20055;-78
2022/06/23 00:29:09;;;;;;;11.02;3.53;;;19.70;99.90;;;;;;4938107;29;20473;-78
2022/06/23 00:31:38;;;;;;;8.38;2.88;;;19.70;99.90;;;;;;4921121;29;20066;-78
2022/06/23 00:34:16;;;;;;;7.97;3.20;;;19.70;99.90;;;;;;4938182;29;20088;-78
2022/06/23 00:36:54;;;;;;;6.57;3.17;;;19.70;99.90;;;;;;4923456;29;20052;-78
2022/06/23 00:39:35;;;;;;;6.13;2.88;;;19.60;99.90;;;;;;4918894;29;20044;-79
2022/06/23 00:42:30;;;;;;;7.13;2.63;;;19.70;99.90;;;;;;4916436;29;20056;-78
2022/06/23 00:45:09;;;;;;;6.57;3.17;;;19.60;99.90;;;;;;4916721;29;20054;-78
2022/06/23 00:47:53;;;;;;;13.60;4.03;;;19.60;99.90;;;;;;4934594;29;20131;-78
2022/06/23 00:50:36;;;;;;;7.20;2.83;;;19.60;99.90;;;;;;4916545;29;20403;-77
2022/06/23 00:53:12;;;;;;;7.75;2.88;;;19.50;99.90;;;;;;4920900;29;20052;-77
2022/06/23 00:56:32;;;;;;;4.72;2.53;;;19.50;99.90;;;;;;4919474;29;20083;-77
2022/06/23 00:59:02;;;;;;;11.20;2.45;;;19.40;99.90;;;;;;4878925;29;20041;-78
2022/06/23 01:01:31;;;;;;;8.43;2.83;;;19.40;99.90;;;;;;4917577;29;20058;-77
2022/06/23 01:04:17;;;;;;;26.00;4.47;;;19.40;99.90;;;;;;4919489;29;20520;-77
2022/06/23 01:07:00;;;;;;;8.68;2.50;;;19.40;99.90;;;;;;4932552;29;20048;-77
2022/06/23 01:09:41;;;;;;;8.77;2.60;;;19.30;99.90;;;;;;4916203;29;20048;-78
2022/06/23 01:12:31;;;;;;;5.63;1.90;;;19.40;99.90;;;;;;4920063;29;20059;-77
2022/06/23 01:15:07;;;;;;;10.00;2.10;;;19.40;99.90;;;;;;4933144;29;20059;-78
2022/06/23 01:17:42;;;;;;;5.07;1.95;;;19.40;99.90;;;;;;4915398;29;20139;-77
2022/06/23 01:20:18;;;;;;;8.52;2.05;;;19.40;99.90;;;;;;4934049;29;20414;-77
2022/06/23 01:22:56;;;;;;;7.72;2.28;;;19.40;99.90;;;;;;4918680;29;20059;-77
2022/06/23 01:25:34;;;;;;;7.57;1.60;;;19.40;99.90;;;;;;4916566;29;20052;-78
2022/06/23 01:28:17;;;;;;;9.45;1.98;;;19.40;99.90;;;;;;4919986;29;20052;-78
2022/06/23 01:31:09;;;;;;;8.05;2.17;;;19.40;99.90;;;;;;4917191;29;20083;-78
2022/06/23 01:33:52;;;;;;;7.63;1.90;;;19.40;99.90;;;;;;4931098;29;20119;-78
2022/06/23 01:36:39;;;;;;;8.45;1.80;;;19.30;99.90;;;;;;4915230;29;20135;-78
2022/06/23 01:39:16;;;;;;;6.28;1.52;;;19.30;99.90;;;;;;4918594;29;20192;-78
2022/06/23 01:41:48;;;;;;;6.13;1.98;;;19.20;99.90;;;;;;4939973;29;20139;-77
2022/06/23 01:44:27;;;;;;;8.68;1.73;;;19.20;99.90;;;;;;4922422;29;20478;-77
2022/06/23 01:46:57;;;;;;;5.78;1.70;;;19.20;99.90;;;;;;4916190;29;20147;-78
2022/06/23 01:49:32;;;;;;;7.70;1.92;;;19.10;99.90;;;;;;4918852;29;20090;-78
2022/06/23 01:52:19;;;;;;;6.90;2.30;;;19.10;99.90;;;;;;4937170;29;20058;-78
2022/06/23 01:54:52;;;;;;;6.60;1.85;;;19.10;99.90;;;;;;4923618;29;20075;-78
2022/06/23 01:57:29;;;;;;;4.97;1.60;;;19.10;99.90;;;;;;4926201;29;20052;-78
2022/06/23 02:00:07;;;;;;;7.82;1.92;;;19.00;99.90;;;;;;4921735;29;20068;-77
2022/06/23 02:02:39;;;;;;;10.00;2.00;;;19.00;99.90;;;;;;4924553;29;20088;-78
2022/06/23 02:05:35;;;;;;;6.85;1.77;;;19.00;99.90;;;;;;4924578;29;20052;-78
2022/06/23 02:08:29;;;;;;;7.88;2.10;;;19.00;99.90;;;;;;4920822;29;20136;-78
2022/06/23 02:11:06;;;;;;;6.13;1.85;;;19.00;99.90;;;;;;4921400;29;20059;-78
2022/06/23 02:13:45;;;;;;;7.65;1.90;;;19.00;99.90;;;;;;4939447;29;20135;-77
2022/06/23 02:16:17;;;;;;;5.93;1.70;;;19.00;99.90;;;;;;4918835;29;20058;-77
2022/06/23 02:19:03;;;;;;;6.43;1.83;;;19.00;99.90;;;;;;4923376;29;20048;-77
2022/06/23 02:21:35;;;;;;;5.00;1.42;;;19.00;99.90;;;;;;4915923;29;20525;-77
2022/06/23 02:24:16;;;;;;;5.63;1.75;;;19.00;99.90;;;;;;4934598;29;20044;-78
2022/06/23 02:27:05;;;;;;;7.60;1.70;;;19.00;99.90;;;;;;4920139;29;20056;-78
2022/06/23 02:30:01;;;;;;;7.60;1.43;;;19.10;99.90;;;;;;4919114;29;20052;-78
2022/06/23 02:32:59;;;;;;;10.40;1.83;;;19.10;99.90;;;;;;4919475;29;20071;-78
2022/06/23 02:36:07;;;;;;;5.53;2.40;;;19.00;99.90;;;;;;4919781;29;20055;-78
2022/06/23 02:38:36;;;;;;;7.68;1.42;;;19.00;99.90;;;;;;4917967;29;20498;-78
2022/06/23 02:41:06;;;;;;;8.00;1.42;;;18.90;99.90;;;;;;4919271;29;20052;-78
2022/06/23 02:44:15;;;;;;;5.30;1.60;;;18.90;99.90;;;;;;4919505;29;20139;-78
2022/06/23 02:47:08;;;;;;;5.75;1.58;;;18.80;99.90;;;;;;4931847;29;20492;-78
2022/06/23 02:50:05;;;;;;;12.10;2.85;;;18.90;99.90;;;;;;4928362;29;20060;-79
2022/06/23 02:53:07;;;;;;;6.00;1.60;;;18.90;99.90;;;;;;4916870;29;20059;-77
2022/06/23 02:55:43;;;;;;;3.83;1.25;;;19.00;99.90;;;;;;4934480;29;20052;-77
2022/06/23 02:58:19;;;;;;;8.50;1.40;;;19.00;99.90;;;;;;4919721;29;20056;-79
2022/06/23 03:01:11;;;;;;;6.13;1.75;;;18.90;99.90;;;;;;4921864;29;20490;-79
2022/06/23 03:04:07;;;;;;;5.95;1.63;;;18.90;99.90;;;;;;4919630;29;20519;-79
2022/06/23 03:06:43;;;;;;;6.97;1.70;;;18.90;99.90;;;;;;4921214;29;20063;-79
2022/06/23 03:09:15;;;;;;;7.95;2.00;;;18.90;99.90;;;;;;4918571;29;20080;-79
2022/06/23 03:12:13;;;;;;;11.23;3.00;;;18.90;99.90;;;;;;4921672;29;20052;-78
2022/06/23 03:14:55;;;;;;;11.65;2.67;;;18.90;99.90;;;;;;4920512;29;20462;-79
2022/06/23 03:17:33;;;;;;;8.88;2.30;;;18.90;99.90;;;;;;4919690;29;20130;-79
2022/06/23 03:20:06;;;;;;;6.13;2.13;;;18.90;99.90;;;;;;4920572;29;20083;-79
2022/06/23 03:23:04;;;;;;;5.35;2.40;;;18.90;99.90;;;;;;4932710;29;20063;-79
2022/06/23 03:25:47;;;;;;;4.00;1.83;;;18.90;99.90;;;;;;4933200;29;20058;-79
2022/06/23 03:28:22;;;;;;;6.03;1.90;;;19.00;99.90;;;;;;4938955;29;20071;-79
2022/06/23 03:30:55;;;;;;;8.85;2.08;;;19.00;99.90;;;;;;4925424;29;20167;-79
2022/06/23 03:33:29;;;;;;;5.53;1.70;;;19.00;99.90;;;;;;4925445;29;20055;-79
2022/06/23 03:36:03;;;;;;;11.05;2.85;;;19.00;99.90;;;;;;4936211;29;20577;-78
2022/06/23 03:41:37;;;;;;;8.23;2.10;;;19.00;99.90;;;;;;4922793;29;20445;-79
2022/06/23 03:44:33;;;;;;;7.70;2.17;;;19.00;99.90;;;;;;4925846;29;20048;-78
2022/06/23 03:47:14;;;;;;;6.90;2.45;;;19.00;99.90;;;;;;4921504;29;20068;-79
2022/06/23 03:50:04;;;;;;;8.27;2.05;;;19.00;99.90;;;;;;4924052;29;20453;-79
2022/06/23 03:52:41;;;;;;;;;;;19.00;99.90;;;;;;4937954;29;20056;-79
2022/06/23 03:55:23;;;;;;;8.73;1.95;;;19.00;99.90;;;;;;4920883;29;19923;-79
2022/06/23 03:57:53;;;;;;;11.77;2.60;;;19.00;99.90;;;;;;4939976;29;20056;-79
2022/06/23 04:01:03;;;;;;;9.82;2.00;;;19.00;99.90;;;;;;4924748;29;20120;-78
2022/06/23 04:03:49;;;;;;;10.27;3.17;;;19.00;99.90;;;;;;4903132;29;20550;-79
2022/06/23 04:06:31;;;;;;;8.40;1.92;;;19.00;99.90;;;;;;4903162;29;20052;-79
2022/06/23 04:09:06;;;;;;;8.98;2.30;;;19.10;99.90;;;;;;4917222;29;20060;-79
2022/06/23 04:11:53;;;;;;;9.18;2.40;;;19.10;99.90;;;;;;4921719;29;20063;-79
2022/06/23 04:14:59;;;;;;;9.95;2.83;;;19.10;99.90;;;;;;4924050;29;20054;-79
2022/06/23 04:17:38;;;;;;;14.27;2.97;;;19.00;99.90;;;;;;4936328;29;20131;-78
2022/06/23 04:20:19;;;;;;;12.80;2.78;;;19.10;99.90;;;;;;4923597;29;20091;-79
2022/06/23 04:22:59;;;;;;;13.05;2.97;;;19.00;99.90;;;;;;4922225;29;20425;-79
2022/06/23 04:25:40;;;;;;;8.70;2.50;;;19.00;99.90;;;;;;4920292;29;20052;-80
2022/06/23 04:28:16;;;;;;;7.60;2.50;;;19.00;99.90;;;;;;4923754;29;20359;-79
2022/06/23 04:30:45;;;;;;;13.50;3.40;;;19.00;99.90;;;;;;4920228;29;20143;-79
2022/06/23 04:33:19;;;;;;;14.05;2.78;;;19.00;99.90;;;;;;4923576;29;20052;-79
2022/06/23 04:35:50;;;;;;;11.80;3.42;;;19.10;99.90;;;;;;4923546;29;20087;-79
2022/06/23 04:38:43;;;;;;;7.20;2.53;;;19.10;99.90;;;;;;4938117;29;20052;-79
2022/06/23 04:41:30;;;;;;;10.80;2.60;;;19.20;99.90;;;;;;4921349;29;20044;-79
2022/06/23 04:44:11;;;;;;;13.75;2.97;;;19.10;99.90;;;;;;4921903;29;20080;-79
2022/06/23 04:46:48;;;;;;;14.85;3.38;;;19.20;99.90;;;;;;4919579;29;20052;-80
2022/06/23 04:49:43;;;;;;;17.85;3.10;;;19.30;99.90;;;;;;4937168;29;20052;-79
2022/06/23 04:52:24;;;;;;;13.57;2.92;;;19.40;99.90;;;;;;4917884;29;20055;-79
2022/06/23 04:55:13;;;;;;;13.77;2.88;;;19.50;99.90;;;;;;4934651;29;20095;-78
2022/06/23 04:57:44;;;;;;;6.00;2.60;;;19.60;99.90;;;;;;4918065;29;20048;-79
2022/06/23 05:00:24;;;;;;;15.30;2.38;;;19.70;99.90;;;;;;4936713;29;20087;-78
2022/06/23 05:03:02;;;;;;;10.30;2.53;;;19.90;99.90;;;;;;4921798;29;20084;-79
2022/06/23 05:05:32;;;;;;;13.18;2.75;;;20.00;99.90;;;;;;4934515;29;20135;-77
2022/06/23 05:08:04;;;;;;;13.77;3.05;;;20.10;99.90;;;;;;4919074;29;20056;-77
2022/06/23 05:10:47;;;;;;;14.45;3.75;;;20.30;99.90;;;;;;4932208;29;20163;-77
2022/06/23 05:13:24;;;;;;;13.93;4.75;;;20.40;99.90;;;;;;4919227;29;20059;-77
2022/06/23 05:16:05;;;;;;;13.82;4.30;;;20.50;99.90;;;;;;4914602;29;20083;-77
2022/06/23 05:18:38;;;;;;;15.20;4.00;;;20.60;99.90;;;;;;4935134;29;20135;-80
2022/06/23 05:21:09;;;;;;;9.93;3.58;;;20.80;99.90;;;;;;4921859;29;20486;-78
2022/06/23 05:23:59;;;;;;;11.30;3.13;;;20.90;99.90;;;;;;4917907;29;20044;-79
2022/06/23 05:26:32;;;;;;;12.32;3.47;;;20.90;99.90;;;;;;4931474;29;20052;-77
2022/06/23 05:29:07;;;;;;;21.63;3.95;;;21.00;99.90;;;;;;4918436;29;20103;-79
2022/06/23 05:31:36;;;;;;;8.70;3.47;;;21.10;99.90;;;;;;4936682;29;20048;-80
2022/06/23 05:34:13;;;;;;;10.03;3.17;;;21.20;99.90;;;;;;4922710;29;20059;-80
2022/06/23 05:37:01;;;;;;;9.90;3.20;;;21.20;99.90;;;;;;4918730;29;20054;-77
2022/06/23 05:39:36;;;;;;;11.82;3.30;;;21.30;99.90;;;;;;4934176;29;20134;-79
2022/06/23 05:42:14;;;;;;;12.45;3.55;;;21.30;99.90;;;;;;4921881;29;20072;-79
2022/06/23 05:45:08;;;;;;;17.20;4.65;;;21.30;99.90;;;;;;4914398;29;20139;-78
2022/06/23 05:47:37;;;;;;;12.25;3.15;;;21.20;99.90;;;;;;4929846;29;20414;-78
2022/06/23 05:50:15;;;;;;;15.10;4.28;;;21.20;99.90;;;;;;4919165;29;20437;-78
2022/06/23 05:52:52;;;;;;;15.70;4.10;;;21.20;99.90;;;;;;4933614;29;20052;-78
2022/06/23 05:55:41;;;;;;;14.10;3.20;;;21.30;99.90;;;;;;4916318;29;20429;-77
2022/06/23 05:58:20;;;;;;;12.20;4.40;;;21.30;99.90;;;;;;4917379;29;20044;-78
2022/06/23 06:00:56;;;;;;;10.25;3.08;;;21.30;99.90;;;;;;4921128;29;20407;-78
2022/06/23 06:03:39;;;;;;;13.82;3.95;;;21.20;99.90;;;;;;4920052;29;20481;-77
2022/06/23 06:06:07;;;;;;;13.27;3.28;;;21.20;99.90;;;;;;4918722;29;20056;-77
2022/06/23 06:11:32;;;;;;;8.20;3.20;;;21.20;99.90;;;;;;4918525;29;20502;-77
2022/06/23 06:14:00;;;;;;;11.60;3.85;;;21.20;99.90;;;;;;4916720;29;20059;-78
2022/06/23 06:16:28;;;;;;;10.85;2.70;;;21.10;99.90;;;;;;4918296;29;20139;-77
2022/06/23 06:18:55;;;;;;;12.60;3.45;;;21.10;99.90;;;;;;4917420;29;20072;-77
2022/06/23 06:21:23;;;;;;;11.35;3.60;;;21.10;99.90;;;;;;4917036;29;20198;-78
2022/06/23 06:24:01;;;;;;;9.77;3.45;;;21.10;99.90;;;;;;4919084;29;20048;-77
2022/06/23 06:26:35;;;;;;;13.68;3.85;;;21.10;99.90;;;;;;4929588;29;20510;-78
2022/06/23 06:29:19;;;;;;;12.55;3.33;;;21.10;99.90;;;;;;4923157;29;20058;-77
2022/06/23 06:32:17;;;;;;;9.93;3.35;;;21.20;99.90;;;;;;4916577;29;20500;-78
2022/06/23 06:35:15;;;;;;;10.82;3.55;;;21.20;99.90;;;;;;4910843;29;20059;-78
2022/06/23 06:37:48;;;;;;;13.15;3.00;;;21.30;99.90;;;;;;4916070;29;20127;-77
2022/06/23 06:40:15;;;;;;;7.60;2.70;;;21.30;99.90;;;;;;4918765;29;20075;-78
2022/06/23 06:42:50;;;;;;;14.07;3.30;;;21.50;99.90;;;;;;4918254;29;20142;-77
2022/06/23 06:45:19;;;;;;;8.52;3.33;;;21.50;99.90;;;;;;4915350;29;20131;-77
2022/06/23 06:47:46;;;;;;;11.88;2.75;;;21.60;99.90;;;;;;4933289;29;20063;-78
2022/06/23 06:50:28;;;;;;;14.80;3.65;;;21.70;99.90;;;;;;4918681;29;20052;-77
2022/06/23 06:52:58;;;;;;;13.48;2.97;;;21.70;99.90;;;;;;4915337;29;20084;-77
2022/06/23 06:55:36;;;;;;;19.60;3.85;;;21.80;99.90;;;;;;4918895;29;20052;-78
2022/06/23 06:58:29;;;;;;;14.93;3.08;;;21.80;99.90;;;;;;4918201;29;20449;-77
2022/06/23 07:01:01;;;;;;;16.15;2.72;;;21.80;99.90;;;;;;4920337;29;20079;-77
2022/06/23 07:03:31;;;;;;;11.82;3.20;;;21.90;99.90;;;;;;4915292;29;20044;-78
2022/06/23 07:06:04;;;;;;;7.95;2.97;;;21.90;99.90;;;;;;4920584;29;20056;-78
2022/06/23 07:08:46;;;;;;;11.77;3.78;;;21.90;99.90;;;;;;4933702;29;20056;-77
2022/06/23 07:11:54;;;;;;;14.10;4.05;;;21.90;99.90;;;;;;4916149;29;20142;-78
2022/06/23 07:14:32;;;;;;;13.25;3.80;;;22.00;99.90;;;;;;4907902;29;20131;-78
2022/06/23 07:17:05;;;;;;;14.82;4.72;;;21.90;99.90;;;;;;4915919;29;20052;-78
2022/06/23 07:19:44;;;;;;;17.60;4.43;;;21.90;99.90;;;;;;4919134;29;20103;-78
2022/06/23 07:22:24;;;;;;;12.05;3.45;;;21.90;99.90;;;;;;4914392;29;20131;-78
2022/06/23 07:25:00;;;;;;;11.48;3.75;;;22.00;99.90;;;;;;4932333;29;20558;-77
2022/06/23 07:27:44;;;;;;;11.60;3.65;;;22.00;99.90;;;;;;4917647;29;20084;-77
2022/06/23 07:30:18;;;;;;;13.80;3.88;;;22.10;99.90;;;;;;4918512;29;20056;-77
2022/06/23 07:33:15;;;;;;;15.38;3.47;;;22.10;99.90;;;;;;4915887;29;20108;-78
2022/06/23 07:36:25;;;;;;;12.82;3.42;;;22.10;99.90;;;;;;4917424;29;20434;-81
2022/06/23 07:39:04;;;;;;;12.40;3.45;;;22.20;99.90;;;;;;4899142;29;20422;-79
2022/06/23 07:41:38;;;;;;;8.50;4.47;;;22.30;99.90;;;;;;4929938;29;20103;-79
2022/06/23 07:44:17;;;;;;;12.40;3.67;;;22.30;99.90;;;;;;4935568;29;20290;-79
2022/06/23 07:46:43;;;;;;;16.17;3.45;;;22.30;99.90;;;;;;4917406;29;20090;-80
2022/06/23 07:49:10;;;;;;;14.80;3.20;;;22.40;99.90;;;;;;4920295;29;20107;-80
2022/06/23 07:51:37;;;;;;;10.90;2.67;;;22.40;99.90;;;;;;4933220;29;20051;-79
2022/06/23 07:54:06;;;;;;;12.57;3.08;;;22.40;99.90;;;;;;4920408;29;20052;-79
2022/06/23 07:56:36;;;;;;;11.60;3.47;;;22.40;99.90;;;;;;4920824;29;20052;-80
2022/06/23 07:59:11;;;;;;;;;;;22.50;99.90;;;;;;4920703;29;20059;-79
2022/06/23 08:01:48;;;;;;;9.23;2.75;;;22.60;99.90;;;;;;4916959;29;19978;-79
2022/06/23 08:04:28;;;;;;;11.23;2.65;;;22.60;99.90;;;;;;4920640;29;20478;-79
2022/06/23 08:06:59;;;;;;;12.20;3.95;;;22.60;99.90;;;;;;4917353;29;20079;-79
2022/06/23 08:09:36;;;;;;;10.98;2.92;;;22.70;99.90;;;;;;4920343;29;20048;-79
2022/06/23 08:18:27;;;;;;;11.82;2.58;;;22.90;99.90;;;;;;4915123;29;20060;-79
2022/06/23 08:21:17;;;;;;;14.02;3.00;;;23.00;99.90;;;;;;4921546;29;20056;-81
2022/06/23 08:24:09;;;;;;;12.93;2.35;;;23.00;99.90;;;;;;4935243;29;20056;-79
2022/06/23 08:26:39;;;;;;;17.80;3.58;;;23.10;99.90;;;;;;4920165;29;20136;-79
2022/06/23 08:29:12;;;;;;;10.80;2.67;;;23.10;99.90;;;;;;4924269;29;20058;-79
2022/06/23 08:31:39;;;;;;;13.90;2.90;;;23.20;99.90;;;;;;4922234;29;20044;-80
2022/06/23 08:34:27;;;;;;;12.38;3.40;;;23.30;99.90;;;;;;4934350;29;20056;-79
2022/06/23 08:37:00;;;;;;;20.73;5.25;;;23.30;99.90;;;;;;4924067;29;20107;-79
2022/06/23 08:39:35;;;;;;;20.38;5.50;;;23.50;99.90;;;;;;4924613;29;20083;-79
2022/06/23 08:42:33;;;;;;;18.23;4.00;;;23.50;99.90;;;;;;4921333;29;20144;-79
2022/06/23 08:45:02;;;;;;;19.08;4.03;;;23.60;99.90;;;;;;4922026;29;20103;-80
2022/06/23 08:47:43;;;;;;;10.67;2.87;;;23.70;99.90;;;;;;4921996;29;20828;-79
2022/06/23 08:50:12;;;;;;;7.90;2.28;;;23.70;99.90;;;;;;4920846;29;20051;-80
2022/06/23 08:53:30;;;;;;;12.93;2.28;;;23.70;99.90;;;;;;4938214;29;20593;-79
2022/06/23 08:56:14;;;;;;;14.90;2.60;;;23.80;99.90;;;;;;4898191;29;20135;-79
2022/06/23 08:59:03;;;;;;;8.95;2.70;;;23.90;99.90;;;;;;4923186;29;20148;-79
2022/06/23 09:01:44;;;;;;;11.70;2.70;;;23.90;99.90;;;;;;4922694;29;20082;-79
2022/06/23 09:04:49;;;;;;;13.50;3.45;;;24.10;99.90;;;;;;4920770;29;20521;-80
2022/06/23 09:07:44;;;;;;;8.80;1.92;;;24.10;99.90;;;;;;4921910;29;20084;-80
2022/06/23 09:10:39;;;;;;;12.20;2.90;;;24.20;99.90;;;;;;4937337;29;20052;-79
2022/06/23 09:13:16;;;;;;;12.05;2.72;;;24.30;99.90;;;;;;4923261;29;20058;-79
2022/06/23 09:15:51;;;;;;;13.55;2.80;;;24.40;99.90;;;;;;4935301;29;20048;-79
2022/06/23 09:18:37;;;;;;;15.32;3.10;;;24.40;99.90;;;;;;4937820;29;20048;-79
2022/06/23 09:21:31;;;;;;;18.17;3.33;;;24.40;99.90;;;;;;4920593;29;20050;-80
2022/06/23 09:24:25;;;;;;;8.93;2.25;;;24.50;99.90;;;;;;4920420;29;20048;-79
2022/06/23 09:27:16;;;;;;;15.45;3.20;;;24.50;99.90;;;;;;4921211;29;20101;-80
2022/06/23 09:29:55;;;;;;;12.88;2.90;;;24.60;99.90;;;;;;4918080;29;20052;-79
2022/06/23 09:33:00;;;;;;;14.73;2.80;;;24.60;99.90;;;;;;4919243;29;20108;-79
2022/06/23 09:35:51;;;;;;;12.77;3.25;;;24.70;99.90;;;;;;4920144;29;20074;-79
2022/06/23 09:38:36;;;;;;;11.95;2.53;;;24.60;99.90;;;;;;4920173;29;20060;-79
2022/06/23 09:41:44;;;;;;;12.35;2.70;;;24.70;99.90;;;;;;4920448;29;20498;-79
2022/06/23 09:44:30;;;;;;;14.80;3.03;;;24.80;99.90;;;;;;4894820;29;20055;-80
2022/06/23 09:47:19;;;;;;;11.60;2.92;;;24.80;99.90;;;;;;4919952;29;20091;-79
2022/06/23 09:50:04;;;;;;;12.02;2.75;;;24.80;99.90;;;;;;4918449;29;20056;-80
2022/06/23 09:52:39;;;;;;;15.30;2.75;;;24.80;99.90;;;;;;4922231;29;20506;-80
2022/06/23 09:55:43;;;;;;;15.85;4.05;;;24.90;99.90;;;;;;4918976;29;20051;-79
2022/06/23 09:58:24;;;;;;;11.00;2.45;;;24.90;99.90;;;;;;4920595;29;20054;-79
2022/06/23 10:01:10;;;;;;;14.15;3.08;;;25.10;99.90;;;;;;4921441;29;20058;-79
2022/06/23 10:03:43;;;;;;;8.27;2.08;;;25.20;99.90;;;;;;4918410;29;20092;-79
2022/06/23 10:06:39;;;;;;;9.35;2.92;;;25.20;99.90;;;;;;4921761;29;20048;-79
2022/06/23 10:09:23;;;;;;;12.55;2.75;;;25.20;99.90;;;;;;4920097;29;20052;-80
2022/06/23 10:12:03;;;;;;;11.77;3.00;;;25.30;99.90;;;;;;4918289;29;20138;-80
2022/06/23 10:14:46;;;;;;;10.18;2.33;;;25.30;99.90;;;;;;4922440;29;20063;-79
2022/06/23 10:17:35;;;;;;;7.43;2.35;;;25.40;99.90;;;;;;4923742;29;20048;-79
2022/06/23 10:20:28;;;;;;;11.05;2.70;;;25.40;99.90;;;;;;4918058;29;20521;-79
2022/06/23 10:23:11;;;;;;;8.45;2.33;;;25.50;99.90;;;;;;4918926;29;20055;-79
2022/06/23 10:25:50;;;;;;;13.20;2.58;;;25.50;99.90;;;;;;4935612;29;20044;-79
2022/06/23 10:28:40;;;;;;;12.43;2.53;;;25.60;99.90;;;;;;4920734;29;20152;-79
2022/06/23 10:31:43;;;;;;;9.65;2.47;;;25.60;99.90;;;;;;4918600;29;20139;-79
2022/06/23 10:34:16;;;;;;;13.30;2.45;;;25.60;99.90;;;;;;4919346;29;20059;-79
2022/06/23 10:37:04;;;;;;;13.90;3.63;;;25.70;99.90;;;;;;4919689;29;20079;-79
2022/06/23 10:40:07;;;;;;;14.65;2.58;;;25.70;99.90;;;;;;4921035;29;20442;-79
2022/06/23 10:43:09;;;;;;;12.02;2.40;;;25.80;99.90;;;;;;4921093;29;20052;-79
2022/06/23 10:45:44;;;;;;;14.93;2.53;;;25.90;99.90;;;;;;4920009;29;20399;-79
2022/06/23 10:48:28;;;;;;;12.15;2.72;;;25.90;99.90;;;;;;4920752;29;20120;-79
2022/06/23 10:51:36;;;;;;;11.75;2.30;;;25.90;99.90;;;;;;4918682;29;20062;-79
2022/06/23 10:54:37;;;;;;;9.38;2.08;;;26.00;99.90;;;;;;4898216;29;20130;-78
2022/06/23 10:57:39;;;;;;;11.38;2.05;;;26.00;99.90;;;;;;4940955;28;20108;-78
2022/06/23 11:00:17;;;;;;;10.00;2.22;;;26.10;99.90;;;;;;4939504;28;20108;-78
2022/06/23 11:02:59;;;;;;;9.63;2.83;;;26.10;99.90;;;;;;4939193;28;20040;-79
2022/06/23 11:05:47;;;;;;;13.80;2.83;;;26.10;99.90;;;;;;4940345;28;20036;-79
2022/06/23 11:08:45;;;;;;;11.23;2.50;;;26.20;99.90;;;;;;4931128;28;20052;-81
2022/06/23 11:11:41;;;;;;;12.10;2.38;;;26.20;99.90;;;;;;4920278;29;20495;-80
2022/06/23 11:14:30;;;;;;;14.05;3.55;;;26.30;99.90;;;;;;4931337;29;20048;-79
2022/06/23 11:17:27;;;;;;;8.88;2.55;;;26.40;99.90;;;;;;4931644;29;20785;-80
2022/06/23 11:20:34;;;;;;;10.45;2.80;;;26.40;99.90;;;;;;4923679;29;20054;-80
2022/06/23 11:23:25;;;;;;;8.40;2.17;;;26.50;99.90;;;;;;4889917;29;20044;-80
2022/06/23 11:25:58;;;;;;;14.20;3.08;;;26.60;99.90;;;;;;4918407;29;20044;-80
2022/06/23 11:28:46;;;;;;;13.65;2.55;;;26.60;99.90;;;;;;4917943;29;20052;-82
2022/06/23 11:31:47;;;;;;;9.45;2.38;;;26.60;99.90;;;;;;4918049;29;20059;-80
2022/06/23 11:34:29;;;;;;;21.30;2.85;;;26.70;99.90;;;;;;4921543;29;20060;-80
2022/06/23 11:37:25;;;;;;;8.00;2.28;;;26.70;99.90;;;;;;4918641;29;20063;-80
2022/06/23 11:40:01;;;;;;;12.45;3.05;;;26.70;99.90;;;;;;4916617;29;20048;-80
2022/06/23 11:43:04;;;;;;;10.80;2.00;;;26.80;99.90;;;;;;4918658;29;20066;-80
2022/06/23 11:45:55;;;;;;;9.73;2.53;;;26.90;99.90;;;;;;4921953;29;20048;-80
2022/06/23 11:48:47;;;;;;;10.60;2.92;;;26.90;99.90;;;;;;4915340;29;20118;-80
2022/06/23 11:51:42;;;;;;;10.35;2.45;;;26.90;99.90;;;;;;4921176;29;20059;-80
2022/06/23 11:54:30;;;;;;;13.18;3.28;;;27.00;99.90;;;;;;4921616;29;20059;-81
2022/06/23 11:57:16;;;;;;;11.93;2.88;;;27.00;99.90;;;;;;4925058;29;20502;-80
2022/06/23 11:59:54;;;;;;;7.80;2.35;;;26.90;99.90;;;;;;4923133;29;20040;-80
2022/06/23 12:03:02;;;;;;;6.93;2.10;;;26.90;99.90;;;;;;4924328;29;20050;-81
2022/06/23 12:05:51;;;;;;;12.32;2.60;;;26.90;99.90;;;;;;4923422;29;20056;-80
2022/06/23 12:08:30;;;;;;;11.40;2.40;;;27.00;99.90;;;;;;4923973;29;20115;-80
2022/06/23 12:10:57;;;;;;;9.57;2.30;;;27.00;99.90;;;;;;4921860;29;20048;-80
2022/06/23 12:13:27;;;;;;;12.48;2.28;;;27.10;99.90;;;;;;4924734;29;20123;-81
2022/06/23 12:15:55;;;;;;;12.32;2.33;;;27.10;99.90;;;;;;4922190;29;20076;-80
2022/06/23 12:18:30;;;;;;;10.82;2.88;;;27.20;99.90;;;;;;4931285;29;20052;-80
2022/06/23 12:21:05;;;;;;;11.75;2.33;;;27.10;99.90;;;;;;4939389;29;20076;-81
2022/06/23 12:23:46;;;;;;;9.25;2.25;;;27.10;99.90;;;;;;4931493;29;20048;-81
2022/06/23 12:26:23;;;;;;;11.32;2.10;;;27.10;99.90;;;;;;4931382;29;20044;-81
2022/06/23 12:29:14;;;;;;;11.52;2.72;;;27.10;99.90;;;;;;4947916;29;20080;-81
2022/06/23 12:32:09;;;;;;;12.77;2.42;;;27.10;99.90;;;;;;4929438;29;20125;-80
2022/06/23 12:35:03;;;;;;;10.75;2.70;;;27.20;99.90;;;;;;4932030;29;20051;-81
2022/06/23 12:37:43;;;;;;;9.77;2.85;;;27.30;99.90;;;;;;4933576;29;20112;-80
2022/06/23 12:40:28;;;;;;;9.27;2.03;;;27.30;99.90;;;;;;4983082;23;20081;-78
2022/06/23 12:43:01;;;;;;;6.65;1.95;;;27.50;99.90;;;;;;4981447;28;20143;-78
2022/06/23 12:45:38;;;;;;;11.68;2.00;;;27.50;99.90;;;;;;4980061;28;20078;-78
2022/06/23 12:48:11;;;;;;;9.20;2.58;;;27.70;99.90;;;;;;4979995;28;20051;-82
2022/06/23 12:50:59;;;;;;;7.50;2.40;;;27.70;99.90;;;;;;4996356;28;20114;-80
2022/06/23 12:53:47;;;;;;;8.98;2.28;;;27.70;99.90;;;;;;5003977;28;20050;-80
2022/06/23 12:56:38;;;;;;;11.02;2.42;;;27.80;99.90;;;;;;5006147;28;20080;-82
2022/06/23 12:59:43;;;;;;;8.73;2.13;;;27.80;99.90;;;;;;5014313;28;20051;-79
2022/06/23 13:02:28;;;;;;;10.32;2.40;;;27.90;99.90;;;;;;5001431;28;20055;-80
2022/06/23 13:05:30;;;;;;;11.65;2.20;;;27.90;99.90;;;;;;5004573;28;20078;-80
2022/06/23 13:08:00;;;;;;;8.48;2.78;;;27.90;99.90;;;;;;5002916;28;20111;-81
2022/06/23 13:10:32;;;;;;;10.90;2.92;;;28.00;99.90;;;;;;4998952;28;20082;-79
2022/06/23 13:13:04;;;;;;;12.48;2.60;;;28.00;99.90;;;;;;5002410;28;20077;-79
2022/06/23 13:15:59;;;;;;;14.65;2.80;;;28.00;99.90;;;;;;5004156;28;20133;-81
2022/06/23 13:18:35;;;;;;;11.32;2.03;;;28.10;99.90;;;;;;5006013;28;20050;-80
2022/06/23 13:21:16;;;;;;;12.65;2.42;;;28.20;99.90;;;;;;4996863;28;20047;-79
2022/06/23 13:23:53;;;;;;;10.90;2.28;;;28.20;99.90;;;;;;5014347;28;20072;-80
2022/06/23 13:26:25;;;;;;;11.35;2.58;;;28.20;99.90;;;;;;4995131;28;20047;-80
2022/06/23 13:29:16;;;;;;;13.15;2.70;;;28.30;99.90;;;;;;5001681;28;20058;-82
2022/06/23 13:32:00;;;;;;;11.52;2.40;;;28.40;99.90;;;;;;4998185;28;20055;-78
2022/06/23 13:34:34;;;;;;;10.35;2.13;;;28.40;99.90;;;;;;5003527;28;20065;-81
2022/06/23 13:37:12;;;;;;;13.93;2.63;;;28.50;99.90;;;;;;4999847;28;20082;-80
2022/06/23 13:40:00;;;;;;;13.15;2.85;;;28.50;99.90;;;;;;4996988;28;20046;-79
2022/06/23 13:42:35;;;;;;;21.52;2.97;;;28.60;99.90;;;;;;4995737;28;20067;-79
2022/06/23 13:45:31;;;;;;;7.70;2.47;;;28.60;99.90;;;;;;4997071;28;20054;-79
2022/06/23 13:48:26;;;;;;;10.13;2.58;;;28.60;99.90;;;;;;4995310;28;20130;-80
2022/06/23 13:51:20;;;;;;;11.73;3.30;;;28.60;99.90;;;;;;4997621;28;20054;-80
2022/06/23 13:53:54;;;;;;;12.98;2.10;;;28.50;99.90;;;;;;4996254;28;20046;-81
2022/06/23 13:56:36;;;;;;;15.15;2.55;;;28.50;99.90;;;;;;5017812;28;20077;-79
2022/06/23 13:59:13;;;;;;;9.50;2.63;;;28.60;99.90;;;;;;4997045;28;20106;-80
2022/06/23 14:02:07;;;;;;;10.25;2.45;;;28.60;99.90;;;;;;4994837;28;20049;-80
2022/06/23 14:04:38;;;;;;;13.40;2.50;;;28.50;99.90;;;;;;4993972;28;20046;-79
2022/06/23 14:07:32;;;;;;;16.13;2.92;;;28.60;99.90;;;;;;4993982;28;20662;-79
2022/06/23 14:10:07;;;;;;;17.20;3.72;;;28.60;99.90;;;;;;5008657;28;20054;-80